createdAt,value
2019-06-07T00:00:54.468Z,14.30
2019-06-07T00:03:29.887Z,14.40
2019-06-07T00:05:56.167Z,14.30
2019-06-07T00:08:29.230Z,14.30
2019-06-07T00:10:58.151Z,13.80
2019-06-07T00:13:28.052Z,14.30
2019-06-07T00:15:57.936Z,14.20
2019-06-07T00:18:27.882Z,14.20
2019-06-07T00:20:57.823Z,14.30
2019-06-07T00:23:27.882Z,14.30
2019-06-07T00:25:57.815Z,14.30
2019-06-07T00:28:27.837Z,14.30
2019-06-07T00:30:57.764Z,14.40
2019-06-07T00:33:28.725Z,14.40
2019-06-07T00:35:58.621Z,14.30
2019-06-07T00:38:28.582Z,14.30
2019-06-07T00:40:58.505Z,14.30
2019-06-07T00:43:28.753Z,14.30
2019-06-07T00:45:59.671Z,14.20
2019-06-07T00:48:32.992Z,14.10
2019-06-07T00:51:02.162Z,14.20
2019-06-07T00:53:32.799Z,14.20
2019-06-07T00:56:02.898Z,14.30
2019-06-07T00:58:32.845Z,14.30
2019-06-07T01:01:04.134Z,14.30
2019-06-07T01:03:33.997Z,14.20
2019-06-07T01:06:04.331Z,14.10
2019-06-07T01:08:34.383Z,14.10
2019-06-07T01:11:04.388Z,14.00
2019-06-07T01:13:34.253Z,14.00
2019-06-07T01:16:04.425Z,14.10
2019-06-07T01:18:41.145Z,14.10
2019-06-07T01:21:07.378Z,14.00
2019-06-07T01:26:08.942Z,14.00
2019-06-07T01:28:38.858Z,13.90
2019-06-07T01:31:09.670Z,13.90
2019-06-07T01:33:50.739Z,13.90
2019-06-07T01:36:11.469Z,13.90
2019-06-07T01:38:41.460Z,13.90
2019-06-07T01:41:11.379Z,13.90
2019-06-07T01:43:41.234Z,13.90
2019-06-07T01:46:11.173Z,14.00
2019-06-07T01:48:49.530Z,13.90
2019-06-07T01:51:12.673Z,13.90
2019-06-07T01:53:47.997Z,13.80
2019-06-07T01:56:18.890Z,13.80
2019-06-07T01:58:49.524Z,13.70
2019-06-07T02:01:21.145Z,13.70
2019-06-07T02:03:51.035Z,13.70
2019-06-07T02:06:21.706Z,13.70
2019-06-07T02:08:52.509Z,13.80
2019-06-07T02:11:23.788Z,13.70
2019-06-07T02:13:54.283Z,13.70
2019-06-07T02:16:25.392Z,13.70
2019-06-07T02:19:01.754Z,13.60
2019-06-07T02:21:30.427Z,13.70
2019-06-07T02:23:58.917Z,13.70
2019-06-07T02:26:32.178Z,13.70
2019-06-07T02:29:00.417Z,13.70
2019-06-07T02:31:38.265Z,13.70
2019-06-07T02:34:01.931Z,13.80
2019-06-07T02:36:39.101Z,13.80
2019-06-07T02:39:04.968Z,13.70
2019-06-07T02:41:39.387Z,13.70
2019-06-07T02:44:06.930Z,13.60
2019-06-07T02:46:46.514Z,13.60
2019-06-07T02:49:08.484Z,13.60
2019-06-07T02:51:41.703Z,13.60
2019-06-07T02:54:10.000Z,13.50
2019-06-07T02:56:56.354Z,13.50
2019-06-07T02:59:12.577Z,13.50
2019-06-07T03:01:42.914Z,13.50
2019-06-07T03:04:14.148Z,13.60
2019-06-07T03:06:45.382Z,13.50
2019-06-07T03:09:18.812Z,13.40
2019-06-07T03:11:52.235Z,13.40
2019-06-07T03:14:24.229Z,13.50
2019-06-07T03:16:56.844Z,13.40
2019-06-07T03:19:31.344Z,13.50
2019-06-07T03:22:04.361Z,13.50
2019-06-07T03:24:41.074Z,13.50
2019-06-07T03:27:33.967Z,13.60
2019-06-07T03:29:41.188Z,13.60
2019-06-07T03:32:10.907Z,13.60
2019-06-07T03:34:43.501Z,13.60
2019-06-07T03:37:12.450Z,13.60
2019-06-07T03:39:43.328Z,13.80
2019-06-07T03:42:13.270Z,13.90
2019-06-07T03:44:43.197Z,13.80
2019-06-07T03:47:14.263Z,13.70
2019-06-07T03:49:44.233Z,13.70
2019-06-07T03:52:14.091Z,13.70
2019-06-07T03:54:43.946Z,13.80
2019-06-07T03:57:13.884Z,13.80
2019-06-07T03:59:43.739Z,13.80
2019-06-07T04:02:13.688Z,13.80
2019-06-07T04:04:43.632Z,13.80
2019-06-07T04:07:13.646Z,14.00
2019-06-07T04:09:43.563Z,13.90
2019-06-07T04:12:13.491Z,14.00
2019-06-07T04:14:43.351Z,13.90
2019-06-07T04:17:13.298Z,13.90
2019-06-07T04:19:43.750Z,13.90
2019-06-07T04:22:13.763Z,13.90
2019-06-07T04:24:43.736Z,14.00
2019-06-07T04:27:13.676Z,14.10
2019-06-07T04:30:05.960Z,14.10
2019-06-07T04:32:15.192Z,14.10
2019-06-07T04:34:45.345Z,14.10
2019-06-07T04:37:16.125Z,14.10
2019-06-07T04:39:46.129Z,14.10
2019-06-07T04:42:17.461Z,14.20
2019-06-07T04:44:49.406Z,14.40
2019-06-07T04:47:19.928Z,14.60
2019-06-07T04:49:51.210Z,14.80
2019-06-07T04:52:21.964Z,15.30
2019-06-07T04:54:51.966Z,16.80
2019-06-07T04:57:21.940Z,16.80
2019-06-07T05:00:12.109Z,17.40
2019-06-07T05:02:24.675Z,18.10
2019-06-07T05:04:54.637Z,18.80
2019-06-07T05:07:24.585Z,20.00
2019-06-07T05:09:54.579Z,20.80
2019-06-07T05:12:24.578Z,21.70
2019-06-07T05:14:54.516Z,21.90
2019-06-07T05:17:28.855Z,22.30
2019-06-07T05:19:59.856Z,22.90
2019-06-07T05:22:34.047Z,23.00
2019-06-07T05:25:02.599Z,23.10
2019-06-07T05:27:34.321Z,23.30
2019-06-07T05:30:13.691Z,23.10
2019-06-07T05:32:43.693Z,23.10
2019-06-07T05:35:11.711Z,22.10
2019-06-07T05:37:45.633Z,21.40
2019-06-07T05:40:14.776Z,21.00
2019-06-07T05:42:46.674Z,19.80
2019-06-07T05:45:19.373Z,19.60
2019-06-07T05:47:51.080Z,20.30
2019-06-07T05:50:38.987Z,20.70
2019-06-07T05:52:52.553Z,20.90
2019-06-07T05:55:22.476Z,20.20
2019-06-07T05:57:52.473Z,20.20
2019-06-07T06:00:22.595Z,20.00
2019-06-07T06:03:04.812Z,19.90
2019-06-07T06:05:34.536Z,19.40
2019-06-07T06:07:55.734Z,18.60
2019-06-07T06:10:25.678Z,18.10
2019-06-07T06:12:55.596Z,18.20
2019-06-07T06:15:41.471Z,18.20
2019-06-07T06:17:57.105Z,18.20
2019-06-07T06:20:32.959Z,18.30
2019-06-07T06:22:59.233Z,18.20
2019-06-07T06:25:32.948Z,17.80
2019-06-07T06:28:10.936Z,17.50
2019-06-07T06:30:33.588Z,17.60
2019-06-07T06:33:03.668Z,17.70
2019-06-07T06:35:33.565Z,17.90
2019-06-07T06:38:03.736Z,17.90
2019-06-07T06:40:33.768Z,17.70
2019-06-07T06:43:04.848Z,17.60
2019-06-07T06:45:34.707Z,17.90
2019-06-07T06:48:05.114Z,18.00
2019-06-07T06:50:34.979Z,18.10
2019-06-07T06:53:05.116Z,18.00
2019-06-07T06:55:35.038Z,17.80
2019-06-07T06:58:06.039Z,18.00
2019-06-07T07:00:53.612Z,18.30
2019-06-07T07:05:54.452Z,18.60
2019-06-07T07:08:22.549Z,18.50
2019-06-07T07:10:54.485Z,18.70
2019-06-07T07:13:24.105Z,19.00
2019-06-07T07:15:57.834Z,19.30
2019-06-07T07:18:25.975Z,19.00
2019-06-07T07:20:57.615Z,18.70
2019-06-07T07:23:27.404Z,19.00
2019-06-07T07:25:59.662Z,19.30
2019-06-07T07:28:28.962Z,18.70
2019-06-07T07:30:58.968Z,19.40
2019-06-07T07:34:20.142Z,19.40
2019-06-07T07:36:18.960Z,19.60
2019-06-07T07:38:32.102Z,19.80
2019-06-07T07:41:13.816Z,20.00
2019-06-07T07:43:33.701Z,20.30
2019-06-07T07:46:25.925Z,20.20
2019-06-07T07:48:35.394Z,20.00
2019-06-07T07:51:06.821Z,20.00
2019-06-07T07:53:48.276Z,19.80
2019-06-07T07:56:08.459Z,19.80
2019-06-07T07:58:38.463Z,19.70
2019-06-07T08:01:11.338Z,20.10
2019-06-07T08:03:41.447Z,20.10
2019-06-07T08:06:11.522Z,20.30
2019-06-07T08:08:41.435Z,20.40
2019-06-07T08:11:11.327Z,20.60
2019-06-07T08:13:41.217Z,20.40
2019-06-07T08:16:16.257Z,20.60
2019-06-07T08:18:42.682Z,20.70
2019-06-07T08:21:24.823Z,20.70
2019-06-07T08:23:47.409Z,20.70
2019-06-07T08:26:16.978Z,20.90
2019-06-07T08:28:48.418Z,20.90
2019-06-07T08:31:18.604Z,20.70
2019-06-07T08:33:49.891Z,20.90
2019-06-07T08:36:31.497Z,21.10
2019-06-07T08:38:56.982Z,21.30
2019-06-07T08:41:23.231Z,21.20
2019-06-07T08:43:55.338Z,21.20
2019-06-07T08:46:24.776Z,21.40
2019-06-07T08:48:57.124Z,21.50
2019-06-07T08:51:26.275Z,21.60
2019-06-07T08:54:15.900Z,21.40
2019-06-07T08:56:27.866Z,21.10
2019-06-07T08:59:03.117Z,21.10
2019-06-07T09:01:29.393Z,21.00
2019-06-07T09:04:02.758Z,21.20
2019-06-07T09:09:05.229Z,21.50
2019-06-07T09:11:34.399Z,21.70
2019-06-07T09:14:09.004Z,21.80
2019-06-07T09:16:36.617Z,21.70
2019-06-07T09:19:10.678Z,21.80
2019-06-07T09:21:38.244Z,22.10
2019-06-07T09:24:11.377Z,22.50
2019-06-07T09:26:40.019Z,22.60
2019-06-07T09:29:12.089Z,22.60
2019-06-07T09:31:52.863Z,22.60
2019-06-07T09:34:15.423Z,22.50
2019-06-07T09:36:45.846Z,22.40
2019-06-07T09:39:15.943Z,22.50
2019-06-07T09:41:50.130Z,22.50
2019-06-07T09:44:25.084Z,22.80
2019-06-07T09:47:07.937Z,23.10
2019-06-07T09:49:31.413Z,23.40
2019-06-07T09:51:52.310Z,23.40
2019-06-07T09:55:03.782Z,23.40
2019-06-07T09:56:53.870Z,23.30
2019-06-07T09:59:23.876Z,23.40
2019-06-07T10:01:53.765Z,23.60
2019-06-07T10:04:31.301Z,23.70
2019-06-07T10:06:55.306Z,23.70
2019-06-07T10:10:09.394Z,24.00
2019-06-07T10:11:58.189Z,24.20
2019-06-07T10:14:28.223Z,24.00
2019-06-07T10:16:58.768Z,24.00
2019-06-07T10:19:28.876Z,24.30
2019-06-07T10:21:59.101Z,24.50
2019-06-07T10:24:29.141Z,24.50
2019-06-07T10:26:59.681Z,24.40
2019-06-07T10:29:29.708Z,24.30
2019-06-07T10:32:00.109Z,24.60
2019-06-07T10:34:30.367Z,24.50
2019-06-07T10:37:11.148Z,24.60
2019-06-07T10:39:48.555Z,24.80
2019-06-07T10:42:13.059Z,25.20
2019-06-07T10:44:44.955Z,25.20
2019-06-07T10:47:14.833Z,25.30
2019-06-07T10:49:44.727Z,25.20
2019-06-07T10:52:14.672Z,25.30
2019-06-07T10:54:44.685Z,25.10
2019-06-07T10:57:17.351Z,25.20
2019-06-07T10:59:47.281Z,25.50
2019-06-07T11:02:17.201Z,26.10
2019-06-07T11:04:47.078Z,26.20
2019-06-07T11:07:17.065Z,26.40
2019-06-07T11:09:46.955Z,26.80
2019-06-07T11:12:16.817Z,26.70
2019-06-07T11:14:47.735Z,26.60
2019-06-07T11:17:17.853Z,27.10
2019-06-07T11:19:49.323Z,27.60
2019-06-07T11:22:19.360Z,28.20
2019-06-07T11:24:49.442Z,28.90
2019-06-07T11:27:19.461Z,29.30
2019-06-07T11:29:49.390Z,29.40
2019-06-07T11:32:19.345Z,30.00
2019-06-07T11:34:49.293Z,30.60
2019-06-07T11:37:19.258Z,30.50
2019-06-07T11:39:49.262Z,30.00
2019-06-07T11:42:20.154Z,29.70
2019-06-07T11:44:56.775Z,29.90
2019-06-07T11:47:21.835Z,30.20
2019-06-07T11:49:51.764Z,30.70
2019-06-07T11:52:21.723Z,31.30
2019-06-07T11:54:51.680Z,31.70
2019-06-07T11:57:21.589Z,31.60
2019-06-07T11:59:51.544Z,30.90
2019-06-07T12:02:21.397Z,30.80
2019-06-07T12:04:52.424Z,30.60
2019-06-07T12:07:22.385Z,30.10
2019-06-07T12:09:56.407Z,30.40
2019-06-07T12:12:23.868Z,30.20
2019-06-07T12:14:53.730Z,30.00
2019-06-07T12:17:23.671Z,30.30
2019-06-07T12:19:53.524Z,30.60
2019-06-07T12:22:23.404Z,30.70
2019-06-07T12:24:53.340Z,30.50
2019-06-07T12:27:23.287Z,30.50
2019-06-07T12:29:53.224Z,31.20
2019-06-07T12:32:23.252Z,31.40
2019-06-07T12:34:53.175Z,31.60
2019-06-07T12:37:39.195Z,31.50
2019-06-07T12:39:54.757Z,31.30
2019-06-07T12:42:24.753Z,31.40
2019-06-07T12:44:54.599Z,31.40
2019-06-07T12:47:24.668Z,30.50
2019-06-07T12:49:54.588Z,30.70
2019-06-07T12:52:24.696Z,30.60
2019-06-07T12:54:54.658Z,30.20
2019-06-07T12:57:24.575Z,30.10
2019-06-07T12:59:54.492Z,29.90
2019-06-07T13:02:25.568Z,29.60
2019-06-07T13:04:55.701Z,29.90
2019-06-07T13:07:25.715Z,30.20
2019-06-07T13:09:55.614Z,30.50
2019-06-07T13:12:25.608Z,30.50
2019-06-07T13:14:55.720Z,30.10
2019-06-07T13:17:25.667Z,29.90
2019-06-07T13:19:55.537Z,29.70
2019-06-07T13:22:26.553Z,30.20
2019-06-07T13:24:59.456Z,30.30
2019-06-07T13:27:32.807Z,30.10
2019-06-07T13:29:59.741Z,29.90
2019-06-07T13:32:29.580Z,29.60
2019-06-07T13:34:59.537Z,29.30
2019-06-07T13:37:29.503Z,29.10
2019-06-07T13:39:59.662Z,28.90
2019-06-07T13:42:29.535Z,29.10
2019-06-07T13:44:59.420Z,29.10
2019-06-07T13:47:29.358Z,28.90
2019-06-07T13:49:59.316Z,28.70
2019-06-07T13:52:29.267Z,28.50
2019-06-07T13:55:02.104Z,28.50
2019-06-07T13:57:30.712Z,28.70
2019-06-07T14:00:09.971Z,29.00
2019-06-07T14:02:32.306Z,28.90
2019-06-07T14:05:02.342Z,28.80
2019-06-07T14:07:32.279Z,28.90
2019-06-07T14:10:02.303Z,28.70
2019-06-07T14:12:33.434Z,28.70
2019-06-07T14:15:03.935Z,28.60
2019-06-07T14:17:33.963Z,28.50
2019-06-07T14:20:06.447Z,28.80
2019-06-07T14:22:36.564Z,28.90
2019-06-07T14:25:10.293Z,29.10
2019-06-07T14:27:40.316Z,29.20
2019-06-07T14:30:11.189Z,29.10
2019-06-07T14:32:41.032Z,29.10
2019-06-07T14:35:11.307Z,29.20
2019-06-07T14:37:41.223Z,29.10
2019-06-07T14:40:11.612Z,28.80
2019-06-07T14:42:41.488Z,28.70
2019-06-07T14:45:14.611Z,28.60
2019-06-07T14:47:44.481Z,28.50
2019-06-07T14:50:14.888Z,28.60
2019-06-07T14:52:44.912Z,28.70
2019-06-07T14:55:15.000Z,28.90
2019-06-07T14:57:44.948Z,28.80
2019-06-07T15:00:15.826Z,28.80
2019-06-07T15:02:45.706Z,28.70
2019-06-07T15:05:15.630Z,28.40
2019-06-07T15:07:45.561Z,28.40
2019-06-07T15:10:15.460Z,28.40
2019-06-07T15:12:45.397Z,28.50
2019-06-07T15:15:15.414Z,28.50
2019-06-07T15:17:45.349Z,28.40
2019-06-07T15:20:15.379Z,28.40
2019-06-07T15:22:46.284Z,28.30
2019-06-07T15:25:16.393Z,28.30
2019-06-07T15:27:46.350Z,28.40
2019-06-07T15:30:16.664Z,28.50
2019-06-07T15:32:46.529Z,28.50
2019-06-07T15:35:16.485Z,28.50
2019-06-07T15:37:46.407Z,28.50
2019-06-07T15:40:17.792Z,28.50
2019-06-07T15:42:52.804Z,28.50
2019-06-07T15:45:19.551Z,28.50
2019-06-07T15:47:49.508Z,28.50
2019-06-07T15:50:19.990Z,28.40
2019-06-07T15:52:49.848Z,28.30
2019-06-07T15:55:19.966Z,28.20
2019-06-07T15:57:49.842Z,28.20
2019-06-07T16:00:20.475Z,28.30
2019-06-07T16:02:52.743Z,28.40
2019-06-07T16:05:22.912Z,28.30
2019-06-07T16:07:52.864Z,28.30
2019-06-07T16:10:22.787Z,28.40
2019-06-07T16:13:00.259Z,28.40
2019-06-07T16:15:24.359Z,28.50
2019-06-07T16:17:54.283Z,28.50
2019-06-07T16:20:24.229Z,28.50
2019-06-07T16:22:54.254Z,28.50
2019-06-07T16:25:24.445Z,28.50
2019-06-07T16:27:54.388Z,28.50
2019-06-07T16:30:24.787Z,28.50
2019-06-07T16:32:54.740Z,28.30
2019-06-07T16:35:24.661Z,28.20
2019-06-07T16:37:54.596Z,28.20
2019-06-07T16:40:24.596Z,28.20
2019-06-07T16:42:54.431Z,28.20
2019-06-07T16:45:36.952Z,28.30
2019-06-07T16:48:07.104Z,28.30
2019-06-07T16:50:37.103Z,28.20
2019-06-07T16:53:07.111Z,28.20
2019-06-07T16:55:38.385Z,28.10
2019-06-07T16:58:08.807Z,28.00
2019-06-07T17:00:40.382Z,28.00
2019-06-07T17:03:10.327Z,28.10
2019-06-07T17:05:43.790Z,28.00
2019-06-07T17:08:11.829Z,28.00
2019-06-07T17:10:42.521Z,28.00
2019-06-07T17:13:12.696Z,27.90
2019-06-07T17:15:42.800Z,27.80
2019-06-07T17:18:12.861Z,27.80
2019-06-07T17:20:43.226Z,27.70
2019-06-07T17:23:13.229Z,27.70
2019-06-07T17:25:43.506Z,27.70
2019-06-07T17:28:14.024Z,27.80
2019-06-07T17:30:44.036Z,27.70
2019-06-07T17:33:13.983Z,27.70
2019-06-07T17:35:44.637Z,27.70
2019-06-07T17:38:14.879Z,27.70
2019-06-07T17:40:45.023Z,27.60
2019-06-07T17:43:14.995Z,27.60
2019-06-07T17:45:45.412Z,27.60
2019-06-07T17:48:15.480Z,27.50
2019-06-07T17:50:47.807Z,27.50
2019-06-07T17:53:17.115Z,27.40
2019-06-07T17:55:48.191Z,27.30
2019-06-07T17:58:18.196Z,27.30
2019-06-07T18:00:51.149Z,27.20
2019-06-07T18:03:22.908Z,27.20
2019-06-07T18:05:54.082Z,27.20
2019-06-07T18:08:24.947Z,27.20
2019-06-07T18:10:54.973Z,27.10
2019-06-07T18:13:24.956Z,27.00
2019-06-07T18:15:59.495Z,27.00
2019-06-07T18:18:28.164Z,26.90
2019-06-07T18:20:58.201Z,26.90
2019-06-07T18:23:28.168Z,26.80
2019-06-07T18:25:59.308Z,26.80
2019-06-07T18:28:30.363Z,26.70
2019-06-07T18:31:00.304Z,26.70
2019-06-07T18:33:30.303Z,26.60
2019-06-07T18:36:00.177Z,26.50
2019-06-07T18:38:30.108Z,26.40
2019-06-07T18:41:00.001Z,26.40
2019-06-07T18:43:29.920Z,26.40
2019-06-07T18:45:59.862Z,26.30
2019-06-07T18:48:29.791Z,26.40
2019-06-07T18:50:59.769Z,26.30
2019-06-07T18:53:29.694Z,26.20
2019-06-07T18:55:59.604Z,26.20
2019-06-07T18:58:29.524Z,26.20
2019-06-07T19:00:59.455Z,26.30
2019-06-07T19:03:29.306Z,26.30
2019-06-07T19:05:59.176Z,26.10
2019-06-07T19:08:29.069Z,26.00
2019-06-07T19:10:59.094Z,25.80
2019-06-07T19:13:29.058Z,26.00
2019-06-07T19:15:59.677Z,26.00
2019-06-07T19:18:29.648Z,26.00
2019-06-07T19:21:00.680Z,26.00
2019-06-07T19:23:31.770Z,26.10
2019-06-07T19:26:01.822Z,26.10
2019-06-07T19:28:31.847Z,26.00
2019-06-07T19:31:01.777Z,26.00
2019-06-07T19:33:31.727Z,26.00
2019-06-07T19:36:01.888Z,26.00
2019-06-07T19:38:31.913Z,25.90
2019-06-07T19:41:16.537Z,26.00
2019-06-07T19:43:33.340Z,25.80
2019-06-07T19:46:03.273Z,25.70
2019-06-07T19:48:33.209Z,25.60
2019-06-07T19:51:03.234Z,25.50
2019-06-07T19:53:34.292Z,25.50
2019-06-07T19:56:04.284Z,25.50
2019-06-07T19:58:34.156Z,25.50
2019-06-07T20:01:04.753Z,25.20
2019-06-07T20:03:35.779Z,24.70
2019-06-07T20:06:05.789Z,24.10
2019-06-07T20:08:35.728Z,23.40
2019-06-07T20:11:05.616Z,22.90
2019-06-07T20:13:35.552Z,22.30
2019-06-07T20:16:05.407Z,22.10
2019-06-07T20:18:35.329Z,21.90
2019-06-07T20:21:05.212Z,21.70
2019-06-07T20:23:35.196Z,21.50
2019-06-07T20:26:05.140Z,21.00
2019-06-07T20:28:36.009Z,20.70
2019-06-07T20:31:08.253Z,20.40
2019-06-07T20:33:39.639Z,20.00
2019-06-07T20:36:09.666Z,19.70
2019-06-07T20:38:39.594Z,19.60
2019-06-07T20:41:09.786Z,19.40
2019-06-07T20:43:39.631Z,19.30
2019-06-07T20:46:09.509Z,19.20
2019-06-07T20:48:39.479Z,19.00
2019-06-07T20:51:09.399Z,19.00
2019-06-07T20:53:39.334Z,19.00
2019-06-07T20:56:09.391Z,18.80
2019-06-07T20:58:39.342Z,18.60
2019-06-07T21:01:09.237Z,18.40
2019-06-07T21:03:39.162Z,18.40
2019-06-07T21:06:10.008Z,18.30
2019-06-07T21:08:40.011Z,18.20
2019-06-07T21:11:09.967Z,18.10
2019-06-07T21:13:39.817Z,18.00
2019-06-07T21:16:10.390Z,18.00
2019-06-07T21:18:40.486Z,18.00
2019-06-07T21:21:10.663Z,18.10
2019-06-07T21:23:40.818Z,18.10
2019-06-07T21:26:11.094Z,17.90
2019-06-07T21:28:41.156Z,18.00
2019-06-07T21:31:12.368Z,18.00
2019-06-07T21:33:42.556Z,18.00
2019-06-07T21:36:12.575Z,17.90
2019-06-07T21:38:42.481Z,17.80
2019-06-07T21:41:12.588Z,17.80
2019-06-07T21:43:42.599Z,17.70
2019-06-07T21:46:20.002Z,17.70
2019-06-07T21:48:44.086Z,17.70
2019-06-07T21:51:13.947Z,17.70
2019-06-07T21:53:44.885Z,17.60
2019-06-07T21:56:14.853Z,17.60
2019-06-07T21:58:44.824Z,17.60
2019-06-07T22:01:17.383Z,17.50
2019-06-07T22:03:47.305Z,17.20
2019-06-07T22:06:17.308Z,17.20
2019-06-07T22:08:47.227Z,17.10
2019-06-07T22:11:18.359Z,17.10
2019-06-07T22:13:48.286Z,17.00
2019-06-07T22:16:28.218Z,17.00
2019-06-07T22:18:49.858Z,17.00
2019-06-07T22:21:19.884Z,16.90
2019-06-07T22:23:49.804Z,16.90
2019-06-07T22:26:20.659Z,16.90
2019-06-07T22:28:50.570Z,16.90
2019-06-07T22:31:20.441Z,16.80
2019-06-07T22:33:50.359Z,16.90
2019-06-07T22:36:20.253Z,16.80
2019-06-07T22:38:50.171Z,16.80
2019-06-07T22:41:20.126Z,16.80
2019-06-07T22:43:50.052Z,16.70
2019-06-07T22:46:33.521Z,16.60
2019-06-07T22:48:51.624Z,16.60
2019-06-07T22:51:21.532Z,16.70
2019-06-07T22:53:51.656Z,16.70
2019-06-07T22:56:32.390Z,16.70
2019-06-07T22:59:03.057Z,16.70
2019-06-07T23:01:33.099Z,16.70
2019-06-07T23:04:03.097Z,16.70
2019-06-07T23:06:33.046Z,16.60
2019-06-07T23:09:03.251Z,16.60
2019-06-07T23:11:34.837Z,16.70
2019-06-07T23:14:09.131Z,16.60
2019-06-07T23:16:54.396Z,16.50
2019-06-07T23:19:11.952Z,16.40
2019-06-07T23:21:42.977Z,16.20
2019-06-07T23:24:14.058Z,16.10
2019-06-07T23:26:44.127Z,16.20
2019-06-07T23:29:14.534Z,16.10
2019-06-07T23:31:44.606Z,16.10
2019-06-07T23:34:14.742Z,16.10
2019-06-07T23:36:45.879Z,16.20
2019-06-07T23:39:17.162Z,15.90
2019-06-07T23:41:47.362Z,15.90
2019-06-07T23:44:17.310Z,16.00
2019-06-07T23:46:47.459Z,16.00
2019-06-07T23:49:17.674Z,16.00
2019-06-07T23:51:47.849Z,15.90
2019-06-07T23:54:17.962Z,15.70
2019-06-07T23:56:48.006Z,15.70
2019-06-07T23:59:18.277Z,15.70
